ADDS METAR Data INFO
IDs: Format: Raw Decoded Include TAF

Data at: 0756 UTC 24 May 2018

KPRS 240735Z AUTO 04013G17KT 10SM CLR 24/15 A3005 RMK AO2 T02420154
KPRS 240715Z AUTO 04013G17KT 10SM CLR 25/15 A3005 RMK AO2 T02450153
KPRS 240655Z AUTO 04009G17KT 10SM CLR 25/16 A3006 RMK AO2 T02450155
KPRS 240635Z AUTO 05013G17KT 10SM CLR 25/16 A3006 RMK AO2 T02470155
KPRS 240615Z AUTO 04012G16KT 10SM CLR 25/16 A3006 RMK AO2 T02500158
KPRS 240555Z AUTO 04011G22KT 10SM CLR 25/16 A3006 RMK AO2 T02520161 10360 20252 403800232
KPRS 240535Z AUTO 06012G16KT 10SM CLR 26/16 A3005 RMK AO2 T02550160
KPRS 240515Z AUTO 06013G23KT 10SM CLR 26/16 A3005 RMK AO2 T02560160
KPRS 240455Z AUTO 05018G26KT 10SM CLR 26/16 A3003 RMK AO2 T02560160
KPRS 240435Z AUTO 05017G25KT 10SM CLR 26/16 A3003 RMK AO2 T02560162
KPRS 240415Z AUTO 04019G28KT 10SM CLR 26/16 A3001 RMK AO2 T02600161
KPRS 240355Z AUTO 04015G29KT 10SM CLR 26/16 A3000 RMK AO2 T02630159
KPRS 240335Z AUTO 03019G25KT 10SM CLR 27/16 A2998 RMK AO2 LTG DSNT E T02700155
KPRS 240315Z AUTO 03016G28KT 10SM CLR 27/15 A2996 RMK AO2 T02740152
KPRS 240255Z AUTO 03019G27KT 10SM CLR 28/15 A2995 RMK AO2 T02800151
KPRS 240235Z AUTO 04017G30KT 10SM CLR 29/15 A2994 RMK AO2 T02850150
KPRS 240215Z AUTO 03024G31KT 10SM CLR 29/14 A2992 RMK AO2 T02900141
KPRS 240155Z AUTO 02020G27KT 10SM CLR 30/13 A2990 RMK AO2 T02970134
KPRS 240135Z AUTO 01017G23KT 10SM CLR 33/13 A2988 RMK AO2 T03320132
KPRS 240115Z AUTO 08011G19KT 10SM CLR 35/11 A2987 RMK AO2 T03450108
KPRS 240055Z AUTO 07013G16KT 10SM CLR 35/10 A2986 RMK AO2 T03510102
KPRS 240035Z AUTO 07014G21KT 10SM CLR 36/11 A2985 RMK AO2 T03550106
KPRS 240015Z AUTO 07012G19KT 10SM CLR 36/09 A2984 RMK AO2 T03570093
KPRS 232355Z AUTO 07012G17KT 10SM CLR 36/11 A2984 RMK AO2 LTG DSNT NE T03560108 10380 20319
KPRS 232335Z AUTO 06015G21KT 10SM CLR 36/11 A2984 RMK AO2 T03600107
KPRS 232315Z AUTO 06013G19KT 10SM SCT110 35/12 A2984 RMK AO2 LTG DSNT SE T03510119
KPRS 232255Z AUTO 05019G26KT 10SM BKN110 36/12 A2984 RMK AO2 T03560120
KPRS 232235Z AUTO 03013G21KT 340V040 10SM BKN110 37/12 A2984 RMK AO2 T03690115
KPRS 232215Z AUTO 18006G17KT 10SM BKN110 38/09 A2985 RMK AO2 T03780087
KPRS 232155Z AUTO 22009G16KT 10SM CLR 38/09 A2985 RMK AO2 LTG DSNT E T03780089
KPRS 232135Z AUTO 20007KT 10SM CLR 37/09 A2986 RMK AO2 LTG DSNT E T03690093
KPRS 232115Z AUTO 13006G17KT 10SM SCT100 37/10 A2987 RMK AO2 T03650104
KPRS 232055Z AUTO 23012G15KT 10SM SCT100 36/12 A2989 RMK AO2 T03560120
KPRS 232035Z AUTO 22003KT 10SM SCT090 SCT110 35/12 A2990 RMK AO2 T03530124
KPRS 232015Z AUTO 24005KT 10SM CLR 35/12 A2992 RMK AO2 T03510124
KPRS 231955Z AUTO 00000KT 10SM CLR 35/12 A2993 RMK AO2 T03470123
KPRS 231935Z AUTO 23005KT 10SM CLR 35/11 A2994 RMK AO2 T03470112
KPRS 231915Z AUTO 19009G14KT 10SM CLR 35/12 A2995 RMK AO2 T03460121
KPRS 231855Z AUTO 17008KT 130V200 10SM CLR 34/14 A2996 RMK AO2 T03370137
KPRS 231835Z AUTO 13004KT 10SM CLR 33/14 A2997 RMK AO2 T03300137
KPRS 231815Z AUTO 18008G14KT 10SM CLR 33/14 A2997 RMK AO2 T03270144
KPRS 231755Z AUTO 15005KT 10SM CLR 32/14 A2998 RMK AO2 T03200143 10325 20232
KPRS 231735Z AUTO 19004KT 10SM CLR 31/15 A2999 RMK AO2 T03100146
KPRS 231715Z AUTO 13012G15KT 10SM CLR 31/14 A2999 RMK AO2 T03120144
KPRS 231655Z AUTO 15005KT 10SM CLR 31/15 A2999 RMK AO2 T03090149
KPRS 231635Z AUTO 09004KT 10SM CLR 30/15 A3000 RMK AO2 T03000151
KPRS 231615Z AUTO 16003KT 10SM CLR 30/15 A3000 RMK AO2 T02950152
KPRS 231555Z AUTO 15004G14KT 10SM CLR 29/16 A3000 RMK AO2 T02910155
KPRS 231535Z AUTO 14004KT 10SM CLR 28/16 A3000 RMK AO2 T02840155
KPRS 231515Z AUTO 06006KT 050V160 10SM CLR 29/16 A3000 RMK AO2 T02860158
KPRS 231455Z AUTO 05010G14KT 10SM CLR 28/16 A3000 RMK AO2 T02770157
KPRS 231435Z AUTO 05011G14KT 10SM CLR 27/16 A3000 RMK AO2 T02680157
KPRS 231415Z AUTO 07009KT 050V110 10SM CLR 26/16 A2999 RMK AO2 T02630157
KPRS 231355Z AUTO 06010KT 10SM CLR 26/16 A2999 RMK AO2 T02560158
KPRS 231335Z AUTO 06008KT 10SM CLR 25/16 A2998 RMK AO2 T02500158
KPRS 231315Z AUTO 05007KT 10SM CLR 24/16 A2998 RMK AO2 T02430157
KPRS 231255Z AUTO 03007KT 10SM CLR 24/16 A2997 RMK AO2 T02370156
KPRS 231235Z AUTO 03009KT 10SM CLR 23/16 A2996 RMK AO2 T02330155
KPRS 231215Z AUTO 04008KT 10SM CLR 23/16 A2996 RMK AO2 T02320155
KPRS 231155Z AUTO 04007KT 10SM CLR 23/16 A2995 RMK AO2 T02330155 10266 20233
KPRS 231135Z AUTO 05009G15KT 10SM CLR 24/16 A2994 RMK AO2 T02360155
KPRS 231115Z AUTO 04008KT 10SM CLR 24/16 A2994 RMK AO2 T02350155
KPRS 231055Z AUTO 04007G14KT 10SM CLR 24/16 A2993 RMK AO2 T02360155
KPRS 231035Z AUTO 04009KT 10SM CLR 24/16 A2993 RMK AO2 T02380155
KPRS 231015Z AUTO 04011G14KT 10SM CLR 24/16 A2992 RMK AO2 T02410155
KPRS 230955Z AUTO 04007KT 10SM CLR 25/15 A2991 RMK AO2 T02450152
KPRS 230935Z AUTO 04011G15KT 10SM CLR 24/15 A2990 RMK AO2 T02430153
KPRS 230915Z AUTO 03011G15KT 10SM CLR 25/15 A2990 RMK AO2 T02450153
KPRS 230855Z AUTO 03011KT 10SM CLR 25/15 A2990 RMK AO2 T02460152
KPRS 230835Z AUTO 03010KT 10SM CLR 25/15 A2990 RMK AO2 T02480151
KPRS 230815Z AUTO 03011KT 10SM CLR 25/15 A2990 RMK AO2 T02500150
KPRS 230755Z AUTO 03012KT 10SM CLR 25/15 A2990 RMK AO2 T02510150
KPRS 230735Z AUTO 03012KT 10SM CLR 25/15 A2990 RMK AO2 T02520147
KPRS 230715Z AUTO 03014G18KT 10SM CLR 26/14 A2989 RMK AO2 T02550143
KPRS 230655Z AUTO 03010G18KT 10SM CLR 26/14 A2989 RMK AO2 T02570140
KPRS 230635Z AUTO 04013G19KT 10SM CLR 26/14 A2988 RMK AO2 T02600137
KPRS 230615Z AUTO 05013G18KT 10SM CLR 26/14 A2988 RMK AO2 T02630138
KPRS 230555Z AUTO 05014G21KT 10SM CLR 27/14 A2988 RMK AO2 T02660140 10352 20266 403520191
KPRS 230535Z AUTO 05017G23KT 10SM CLR 27/14 A2988 RMK AO2 T02710141
KPRS 230515Z AUTO 05018G25KT 10SM CLR 28/15 A2988 RMK AO2 T02750145
KPRS 230455Z AUTO 06020G27KT 10SM CLR 28/15 A2988 RMK AO2 T02800149
KPRS 230435Z AUTO 05018G29KT 10SM CLR 29/15 A2988 RMK AO2 T02850151
KPRS 230415Z AUTO 05021G27KT 10SM CLR 29/15 A2988 RMK AO2 T02910150
KPRS 230355Z AUTO 05018G24KT 10SM CLR 30/14 A2987 RMK AO2 T03000141
KPRS 230335Z AUTO 05021G27KT 10SM CLR 31/14 A2986 RMK AO2 LTG DSNT NE T03050136
KPRS 230315Z AUTO 05018G25KT 10SM SCT120 31/14 A2986 RMK AO2 T03120136
KPRS 230255Z AUTO 06014G19KT 10SM SCT120 33/09 A2984 RMK AO2 T03260094
KPRS 230235Z AUTO 07010KT 10SM SCT120 33/09 A2983 RMK AO2 T03260092
KPRS 230215Z AUTO 08005KT 10SM SCT120 33/10 A2982 RMK AO2 T03250095
KPRS 230155Z AUTO 12004KT 10SM CLR 33/10 A2981 RMK AO2 LTG DSNT NE T03310095
KPRS 230135Z AUTO 10004KT 10SM CLR 34/09 A2980 RMK AO2 T03370092
KPRS 230115Z AUTO 00000KT 10SM CLR 34/09 A2980 RMK AO2 T03410089
KPRS 230055Z AUTO 12005KT 10SM CLR 34/10 A2980 RMK AO2 T03420095
KPRS 230035Z AUTO 14005KT 10SM CLR 35/09 A2980 RMK AO2 T03460093
KPRS 230015Z AUTO 12007KT 10SM CLR 35/09 A2980 RMK AO2 T03500093
KPRS 222355Z AUTO 10003KT 10SM CLR 35/10 A2980 RMK AO2 T03500096 10352 20292
KPRS 222335Z AUTO 00000KT 10SM CLR 35/09 A2981 RMK AO2 T03460090
KPRS 222315Z AUTO 11003KT 10SM CLR 35/10 A2981 RMK AO2 T03480095
KPRS 222255Z AUTO 00000KT 10SM CLR 35/10 A2982 RMK AO2 T03490098
KPRS 222235Z AUTO 12006KT 10SM CLR 35/10 A2982 RMK AO2 T03490099
KPRS 222215Z AUTO 14009KT 10SM SCT100 35/10 A2982 RMK AO2 T03480097
KPRS 222155Z AUTO 26003KT 10SM CLR 34/10 A2983 RMK AO2 T03440099
KPRS 222135Z AUTO 00000KT 10SM CLR 34/10 A2984 RMK AO2 T03360096
KPRS 222115Z AUTO 08004KT 10SM CLR 35/09 A2986 RMK AO2 T03450093
KPRS 222055Z AUTO 06003KT 10SM CLR 34/10 A2987 RMK AO2 T03370102
KPRS 222035Z AUTO 00000KT 10SM CLR 33/10 A2988 RMK AO2 T03310101
KPRS 222015Z AUTO 20004KT 10SM CLR 33/10 A2989 RMK AO2 T03250103